sensor_id;sensor_type;location;lat;lon;timestamp;pressure;altitude;pressure_sealevel;temperature;humidity
2405;BME280;1213;43.206;27.922;2022-12-07T00:01:10;101550.97;;;8.17;100.00
2405;BME280;1213;43.206;27.922;2022-12-07T00:03:37;101549.66;;;8.07;100.00
2405;BME280;1213;43.206;27.922;2022-12-07T00:06:04;101555.38;;;7.96;100.00
2405;BME280;1213;43.206;27.922;2022-12-07T00:08:31;101557.56;;;7.85;100.00
2405;BME280;1213;43.206;27.922;2022-12-07T00:11:18;101557.00;;;7.78;100.00
2405;BME280;1213;43.206;27.922;2022-12-07T00:13:45;101557.31;;;7.71;100.00
2405;BME280;1213;43.206;27.922;2022-12-07T00:16:16;101564.25;;;7.72;100.00
2405;BME280;1213;43.206;27.922;2022-12-07T00:18:42;101561.50;;;7.75;100.00
2405;BME280;1213;43.206;27.922;2022-12-07T00:21:15;101563.09;;;7.79;100.00
2405;BME280;1213;43.206;27.922;2022-12-07T00:23:43;101563.63;;;7.87;100.00
2405;BME280;1213;43.206;27.922;2022-12-07T00:26:14;101565.31;;;7.88;100.00
2405;BME280;1213;43.206;27.922;2022-12-07T00:28:40;101557.47;;;7.88;100.00
2405;BME280;1213;43.206;27.922;2022-12-07T00:31:08;101563.41;;;8.12;100.00
2405;BME280;1213;43.206;27.922;2022-12-07T00:33:35;101565.09;;;8.13;100.00
2405;BME280;1213;43.206;27.922;2022-12-07T00:36:02;101564.09;;;8.16;100.00
2405;BME280;1213;43.206;27.922;2022-12-07T00:38:31;101564.69;;;8.22;100.00
2405;BME280;1213;43.206;27.922;2022-12-07T00:41:01;101561.75;;;8.30;100.00
2405;BME280;1213;43.206;27.922;2022-12-07T00:43:27;101558.78;;;8.39;100.00
2405;BME280;1213;43.206;27.922;2022-12-07T00:45:53;101561.75;;;8.50;100.00
2405;BME280;1213;43.206;27.922;2022-12-07T00:48:20;101555.66;;;8.50;100.00
2405;BME280;1213;43.206;27.922;2022-12-07T00:50:46;101559.31;;;8.46;100.00
2405;BME280;1213;43.206;27.922;2022-12-07T00:53:11;101555.75;;;8.48;100.00
2405;BME280;1213;43.206;27.922;2022-12-07T00:55:37;101545.69;;;8.39;100.00
2405;BME280;1213;43.206;27.922;2022-12-07T00:58:03;101552.31;;;8.46;100.00
2405;BME280;1213;43.206;27.922;2022-12-07T01:00:29;101552.28;;;8.48;100.00
2405;BME280;1213;43.206;27.922;2022-12-07T01:02:55;101554.63;;;8.73;100.00
2405;BME280;1213;43.206;27.922;2022-12-07T01:05:20;101551.28;;;8.88;100.00
2405;BME280;1213;43.206;27.922;2022-12-07T01:07:46;101543.28;;;8.91;100.00
2405;BME280;1213;43.206;27.922;2022-12-07T01:10:13;101538.38;;;9.02;100.00
2405;BME280;1213;43.206;27.922;2022-12-07T01:12:38;101543.47;;;9.05;100.00
2405;BME280;1213;43.206;27.922;2022-12-07T01:15:04;101534.03;;;9.20;100.00
2405;BME280;1213;43.206;27.922;2022-12-07T01:17:30;101534.91;;;9.02;100.00
2405;BME280;1213;43.206;27.922;2022-12-07T01:19:55;101537.63;;;9.00;100.00
2405;BME280;1213;43.206;27.922;2022-12-07T01:22:21;101533.94;;;8.85;100.00
2405;BME280;1213;43.206;27.922;2022-12-07T01:24:46;101528.97;;;8.60;100.00
2405;BME280;1213;43.206;27.922;2022-12-07T01:27:13;101522.03;;;8.41;100.00
2405;BME280;1213;43.206;27.922;2022-12-07T01:29:39;101524.91;;;8.34;100.00
2405;BME280;1213;43.206;27.922;2022-12-07T01:32:04;101517.91;;;8.35;100.00
2405;BME280;1213;43.206;27.922;2022-12-07T01:34:30;101522.53;;;8.28;100.00
2405;BME280;1213;43.206;27.922;2022-12-07T01:36:55;101518.03;;;8.32;100.00
2405;BME280;1213;43.206;27.922;2022-12-07T01:39:21;101515.03;;;8.21;100.00
2405;BME280;1213;43.206;27.922;2022-12-07T01:41:47;101503.38;;;8.28;100.00
2405;BME280;1213;43.206;27.922;2022-12-07T01:46:50;101500.31;;;8.18;100.00
2405;BME280;1213;43.206;27.922;2022-12-07T01:49:21;101494.34;;;8.15;100.00
2405;BME280;1213;43.206;27.922;2022-12-07T01:51:48;101496.97;;;8.35;100.00
2405;BME280;1213;43.206;27.922;2022-12-07T01:54:16;101499.75;;;8.51;100.00
2405;BME280;1213;43.206;27.922;2022-12-07T01:56:50;101497.53;;;8.60;100.00
2405;BME280;1213;43.206;27.922;2022-12-07T01:59:17;101491.59;;;8.76;100.00
2405;BME280;1213;43.206;27.922;2022-12-07T02:01:45;101489.88;;;8.94;100.00
2405;BME280;1213;43.206;27.922;2022-12-07T02:04:11;101489.50;;;9.01;100.00
2405;BME280;1213;43.206;27.922;2022-12-07T02:06:37;101491.00;;;9.07;100.00
2405;BME280;1213;43.206;27.922;2022-12-07T02:09:04;101491.28;;;9.01;100.00
2405;BME280;1213;43.206;27.922;2022-12-07T02:11:30;101500.00;;;9.01;100.00
2405;BME280;1213;43.206;27.922;2022-12-07T02:13:56;101495.59;;;9.02;100.00
2405;BME280;1213;43.206;27.922;2022-12-07T02:30:56;101496.44;;;8.47;100.00
2405;BME280;1213;43.206;27.922;2022-12-07T02:33:31;101502.25;;;8.33;100.00
2405;BME280;1213;43.206;27.922;2022-12-07T02:36:06;101500.31;;;8.18;100.00
2405;BME280;1213;43.206;27.922;2022-12-07T02:41:09;101497.66;;;7.99;100.00
2405;BME280;1213;43.206;27.922;2022-12-07T02:43:47;101496.44;;;7.88;100.00
2405;BME280;1213;43.206;27.922;2022-12-07T02:46:22;101494.94;;;7.82;100.00
2405;BME280;1213;43.206;27.922;2022-12-07T02:48:50;101498.56;;;7.78;100.00
2405;BME280;1213;43.206;27.922;2022-12-07T02:51:17;101500.75;;;7.89;100.00
2405;BME280;1213;43.206;27.922;2022-12-07T02:53:44;101502.00;;;7.80;100.00
2405;BME280;1213;43.206;27.922;2022-12-07T03:02:31;101496.81;;;7.99;100.00
2405;BME280;1213;43.206;27.922;2022-12-07T03:07:48;101491.31;;;8.05;100.00
2405;BME280;1213;43.206;27.922;2022-12-07T03:13:07;101489.22;;;7.93;100.00
2405;BME280;1213;43.206;27.922;2022-12-07T03:18:17;101484.72;;;7.96;100.00
2405;BME280;1213;43.206;27.922;2022-12-07T03:20:46;101487.34;;;7.96;100.00
2405;BME280;1213;43.206;27.922;2022-12-07T03:23:14;101479.75;;;7.90;100.00
2405;BME280;1213;43.206;27.922;2022-12-07T03:25:45;101485.13;;;7.87;100.00
2405;BME280;1213;43.206;27.922;2022-12-07T03:28:14;101482.44;;;7.89;100.00
2405;BME280;1213;43.206;27.922;2022-12-07T03:39:38;101481.72;;;7.65;100.00
2405;BME280;1213;43.206;27.922;2022-12-07T03:42:07;101473.16;;;7.61;100.00
2405;BME280;1213;43.206;27.922;2022-12-07T03:44:34;101472.19;;;7.64;100.00
2405;BME280;1213;43.206;27.922;2022-12-07T03:47:08;101479.69;;;7.51;100.00
2405;BME280;1213;43.206;27.922;2022-12-07T03:49:45;101474.53;;;7.49;100.00
2405;BME280;1213;43.206;27.922;2022-12-07T03:57:30;101485.28;;;7.21;100.00
2405;BME280;1213;43.206;27.922;2022-12-07T03:59:58;101473.66;;;7.29;100.00
2405;BME280;1213;43.206;27.922;2022-12-07T04:02:25;101480.72;;;7.27;100.00
2405;BME280;1213;43.206;27.922;2022-12-07T04:04:52;101480.44;;;7.12;100.00
2405;BME280;1213;43.206;27.922;2022-12-07T04:07:17;101480.66;;;7.06;100.00
2405;BME280;1213;43.206;27.922;2022-12-07T04:09:43;101485.22;;;7.01;100.00
2405;BME280;1213;43.206;27.922;2022-12-07T04:12:08;101483.59;;;6.99;100.00
2405;BME280;1213;43.206;27.922;2022-12-07T04:14:34;101477.59;;;6.97;100.00
2405;BME280;1213;43.206;27.922;2022-12-07T04:16:59;101470.22;;;6.84;100.00
2405;BME280;1213;43.206;27.922;2022-12-07T04:19:27;101472.38;;;6.97;100.00
2405;BME280;1213;43.206;27.922;2022-12-07T04:21:55;101466.22;;;6.98;100.00
2405;BME280;1213;43.206;27.922;2022-12-07T04:24:21;101475.81;;;6.97;100.00
2405;BME280;1213;43.206;27.922;2022-12-07T04:26:47;101470.06;;;6.89;100.00
2405;BME280;1213;43.206;27.922;2022-12-07T04:29:13;101467.44;;;6.89;100.00
2405;BME280;1213;43.206;27.922;2022-12-07T04:31:39;101461.78;;;6.78;100.00
2405;BME280;1213;43.206;27.922;2022-12-07T04:34:06;101461.84;;;6.76;100.00
2405;BME280;1213;43.206;27.922;2022-12-07T04:36:32;101458.53;;;6.73;100.00
2405;BME280;1213;43.206;27.922;2022-12-07T04:38:58;101459.66;;;6.87;100.00
2405;BME280;1213;43.206;27.922;2022-12-07T04:41:24;101465.69;;;6.89;100.00
2405;BME280;1213;43.206;27.922;2022-12-07T04:43:59;101465.97;;;7.04;100.00
2405;BME280;1213;43.206;27.922;2022-12-07T04:46:27;101472.22;;;7.00;100.00
2405;BME280;1213;43.206;27.922;2022-12-07T04:48:53;101458.56;;;6.93;100.00
2405;BME280;1213;43.206;27.922;2022-12-07T04:51:24;101465.06;;;7.05;100.00
2405;BME280;1213;43.206;27.922;2022-12-07T04:53:50;101473.28;;;6.95;100.00
2405;BME280;1213;43.206;27.922;2022-12-07T04:56:17;101473.28;;;6.95;100.00
2405;BME280;1213;43.206;27.922;2022-12-07T04:58:43;101474.38;;;6.90;100.00
2405;BME280;1213;43.206;27.922;2022-12-07T05:01:09;101473.50;;;6.89;100.00
2405;BME280;1213;43.206;27.922;2022-12-07T05:03:36;101471.84;;;6.87;100.00
2405;BME280;1213;43.206;27.922;2022-12-07T05:06:02;101468.75;;;6.77;100.00
2405;BME280;1213;43.206;27.922;2022-12-07T05:08:28;101463.59;;;6.76;100.00
2405;BME280;1213;43.206;27.922;2022-12-07T05:10:53;101467.84;;;6.78;100.00
2405;BME280;1213;43.206;27.922;2022-12-07T05:13:19;101470.59;;;6.75;100.00
2405;BME280;1213;43.206;27.922;2022-12-07T05:15:46;101469.84;;;6.72;100.00
2405;BME280;1213;43.206;27.922;2022-12-07T05:18:11;101470.09;;;6.65;100.00
2405;BME280;1213;43.206;27.922;2022-12-07T05:20:41;101471.06;;;6.63;100.00
2405;BME280;1213;43.206;27.922;2022-12-07T05:23:07;101481.28;;;6.69;100.00
2405;BME280;1213;43.206;27.922;2022-12-07T05:25:33;101481.28;;;6.69;100.00
2405;BME280;1213;43.206;27.922;2022-12-07T05:27:58;101484.19;;;6.83;100.00
2405;BME280;1213;43.206;27.922;2022-12-07T05:30:25;101480.81;;;6.81;100.00
2405;BME280;1213;43.206;27.922;2022-12-07T05:32:51;101484.19;;;6.83;100.00
2405;BME280;1213;43.206;27.922;2022-12-07T05:35:17;101483.16;;;6.87;100.00
2405;BME280;1213;43.206;27.922;2022-12-07T05:37:43;101476.53;;;6.79;100.00
2405;BME280;1213;43.206;27.922;2022-12-07T05:40:10;101480.91;;;6.78;100.00
2405;BME280;1213;43.206;27.922;2022-12-07T05:42:35;101481.88;;;6.76;100.00
2405;BME280;1213;43.206;27.922;2022-12-07T05:45:01;101485.41;;;6.75;100.00
2405;BME280;1213;43.206;27.922;2022-12-07T05:47:27;101481.28;;;6.69;100.00
2405;BME280;1213;43.206;27.922;2022-12-07T05:49:52;101489.03;;;6.71;100.00
2405;BME280;1213;43.206;27.922;2022-12-07T05:52:18;101479.09;;;6.80;100.00
2405;BME280;1213;43.206;27.922;2022-12-07T05:54:43;101465.91;;;6.83;100.00
2405;BME280;1213;43.206;27.922;2022-12-07T05:57:09;101472.00;;;6.84;100.00
2405;BME280;1213;43.206;27.922;2022-12-07T05:59:34;101472.13;;;6.81;100.00
2405;BME280;1213;43.206;27.922;2022-12-07T06:02:02;101471.31;;;6.79;100.00
2405;BME280;1213;43.206;27.922;2022-12-07T06:04:31;101470.59;;;6.75;100.00
2405;BME280;1213;43.206;27.922;2022-12-07T06:06:56;101473.97;;;6.77;100.00
2405;BME280;1213;43.206;27.922;2022-12-07T06:09:23;101474.13;;;6.74;100.00
2405;BME280;1213;43.206;27.922;2022-12-07T06:11:49;101468.09;;;6.72;100.00
2405;BME280;1213;43.206;27.922;2022-12-07T06:14:34;101473.91;;;6.79;100.00
2405;BME280;1213;43.206;27.922;2022-12-07T06:17:00;101472.66;;;6.89;100.00
2405;BME280;1213;43.206;27.922;2022-12-07T06:19:25;101477.53;;;6.98;100.00
2405;BME280;1213;43.206;27.922;2022-12-07T06:21:52;101481.66;;;7.04;100.00
2405;BME280;1213;43.206;27.922;2022-12-07T06:24:17;101477.44;;;7.00;100.00
2405;BME280;1213;43.206;27.922;2022-12-07T06:26:43;101483.34;;;7.05;100.00
2405;BME280;1213;43.206;27.922;2022-12-07T06:29:10;101479.59;;;7.12;100.00
2405;BME280;1213;43.206;27.922;2022-12-07T06:31:36;101478.53;;;7.16;100.00
2405;BME280;1213;43.206;27.922;2022-12-07T06:34:04;101482.66;;;7.21;100.00
2405;BME280;1213;43.206;27.922;2022-12-07T06:36:31;101483.59;;;7.20;100.00
2405;BME280;1213;43.206;27.922;2022-12-07T06:38:56;101479.13;;;7.22;100.00
2405;BME280;1213;43.206;27.922;2022-12-07T06:41:22;101472.75;;;7.30;100.00
2405;BME280;1213;43.206;27.922;2022-12-07T06:43:48;101473.09;;;7.42;100.00
2405;BME280;1213;43.206;27.922;2022-12-07T06:46:14;101478.06;;;7.48;100.00
2405;BME280;1213;43.206;27.922;2022-12-07T06:48:40;101476.75;;;7.59;100.00
2405;BME280;1213;43.206;27.922;2022-12-07T06:51:06;101477.03;;;7.73;100.00
2405;BME280;1213;43.206;27.922;2022-12-07T06:53:31;101480.00;;;7.84;100.00
2405;BME280;1213;43.206;27.922;2022-12-07T06:55:57;101480.47;;;7.94;100.00
2405;BME280;1213;43.206;27.922;2022-12-07T06:58:22;101474.63;;;8.07;100.00
2405;BME280;1213;43.206;27.922;2022-12-07T07:00:48;101476.13;;;8.13;100.00
2405;BME280;1213;43.206;27.922;2022-12-07T07:03:15;101476.69;;;8.20;100.00
2405;BME280;1213;43.206;27.922;2022-12-07T07:05:41;101471.31;;;8.23;100.00
2405;BME280;1213;43.206;27.922;2022-12-07T07:08:07;101477.91;;;8.31;100.00
2405;BME280;1213;43.206;27.922;2022-12-07T07:10:32;101477.72;;;8.36;100.00
2405;BME280;1213;43.206;27.922;2022-12-07T07:12:58;101482.84;;;8.39;100.00
2405;BME280;1213;43.206;27.922;2022-12-07T07:15:26;101476.38;;;8.46;100.00
2405;BME280;1213;43.206;27.922;2022-12-07T07:17:52;101481.06;;;8.58;100.00
2405;BME280;1213;43.206;27.922;2022-12-07T07:20:17;101475.94;;;8.74;100.00
2405;BME280;1213;43.206;27.922;2022-12-07T07:22:43;101476.44;;;8.82;100.00
2405;BME280;1213;43.206;27.922;2022-12-07T07:25:08;101485.50;;;8.94;100.00
2405;BME280;1213;43.206;27.922;2022-12-07T07:27:34;101482.25;;;9.06;100.00
2405;BME280;1213;43.206;27.922;2022-12-07T07:29:59;101486.59;;;9.07;100.00
2405;BME280;1213;43.206;27.922;2022-12-07T07:32:25;101486.16;;;9.16;100.00
2405;BME280;1213;43.206;27.922;2022-12-07T07:34:50;101486.00;;;9.37;100.00
2405;BME280;1213;43.206;27.922;2022-12-07T07:37:16;101486.31;;;9.48;100.00
2405;BME280;1213;43.206;27.922;2022-12-07T07:39:41;101488.94;;;9.65;100.00
2405;BME280;1213;43.206;27.922;2022-12-07T07:42:07;101483.91;;;9.78;100.00
2405;BME280;1213;43.206;27.922;2022-12-07T07:44:34;101488.69;;;9.87;100.00
2405;BME280;1213;43.206;27.922;2022-12-07T07:46:59;101494.00;;;10.03;100.00
2405;BME280;1213;43.206;27.922;2022-12-07T07:49:25;101489.97;;;10.13;100.00
2405;BME280;1213;43.206;27.922;2022-12-07T07:51:51;101491.41;;;10.19;100.00
2405;BME280;1213;43.206;27.922;2022-12-07T07:54:16;101499.28;;;10.19;100.00
2405;BME280;1213;43.206;27.922;2022-12-07T07:56:42;101494.66;;;10.24;100.00
2405;BME280;1213;43.206;27.922;2022-12-07T07:59:07;101502.56;;;10.24;100.00
2405;BME280;1213;43.206;27.922;2022-12-07T08:01:33;101502.16;;;10.32;100.00
2405;BME280;1213;43.206;27.922;2022-12-07T08:04:00;101504.78;;;10.32;100.00
2405;BME280;1213;43.206;27.922;2022-12-07T08:06:26;101509.50;;;10.25;100.00
2405;BME280;1213;43.206;27.922;2022-12-07T08:08:54;101499.88;;;10.41;100.00
2405;BME280;1213;43.206;27.922;2022-12-07T08:11:19;101500.56;;;10.45;100.00
2405;BME280;1213;43.206;27.922;2022-12-07T08:13:46;101499.53;;;10.32;100.00
2405;BME280;1213;43.206;27.922;2022-12-07T08:16:15;101510.47;;;10.40;100.00
2405;BME280;1213;43.206;27.922;2022-12-07T08:18:41;101497.19;;;10.43;100.00
2405;BME280;1213;43.206;27.922;2022-12-07T08:21:10;101501.66;;;10.41;100.00
2405;BME280;1213;43.206;27.922;2022-12-07T08:23:37;101504.97;;;10.60;100.00
2405;BME280;1213;43.206;27.922;2022-12-07T08:26:04;101506.16;;;10.70;100.00
2405;BME280;1213;43.206;27.922;2022-12-07T08:28:30;101493.97;;;10.85;100.00
2405;BME280;1213;43.206;27.922;2022-12-07T08:31:04;101498.19;;;10.88;100.00
2405;BME280;1213;43.206;27.922;2022-12-07T08:33:36;101500.84;;;11.03;100.00
2405;BME280;1213;43.206;27.922;2022-12-07T08:36:07;101489.16;;;11.23;100.00
2405;BME280;1213;43.206;27.922;2022-12-07T08:38:34;101490.91;;;11.38;100.00
2405;BME280;1213;43.206;27.922;2022-12-07T08:41:00;101495.06;;;11.73;100.00
2405;BME280;1213;43.206;27.922;2022-12-07T08:43:26;101486.72;;;12.09;100.00
2405;BME280;1213;43.206;27.922;2022-12-07T08:46:19;101491.72;;;12.42;100.00
2405;BME280;1213;43.206;27.922;2022-12-07T08:48:58;101490.50;;;12.47;100.00
2405;BME280;1213;43.206;27.922;2022-12-07T08:51:26;101478.84;;;12.78;100.00
2405;BME280;1213;43.206;27.922;2022-12-07T08:53:52;101473.00;;;12.88;100.00
2405;BME280;1213;43.206;27.922;2022-12-07T08:56:19;101474.22;;;13.23;100.00
2405;BME280;1213;43.206;27.922;2022-12-07T08:58:45;101477.47;;;13.27;100.00
2405;BME280;1213;43.206;27.922;2022-12-07T09:01:10;101468.09;;;13.36;100.00
2405;BME280;1213;43.206;27.922;2022-12-07T09:03:36;101468.88;;;13.38;100.00
2405;BME280;1213;43.206;27.922;2022-12-07T09:06:02;101464.75;;;13.46;100.00
2405;BME280;1213;43.206;27.922;2022-12-07T09:08:33;101468.19;;;13.07;100.00
2405;BME280;1213;43.206;27.922;2022-12-07T09:11:03;101474.25;;;12.68;100.00
2405;BME280;1213;43.206;27.922;2022-12-07T09:13:32;101461.28;;;12.65;100.00
2405;BME280;1213;43.206;27.922;2022-12-07T09:16:00;101467.31;;;12.53;100.00
2405;BME280;1213;43.206;27.922;2022-12-07T09:18:26;101460.56;;;12.75;100.00
2405;BME280;1213;43.206;27.922;2022-12-07T09:20:52;101452.47;;;13.05;100.00
2405;BME280;1213;43.206;27.922;2022-12-07T09:23:18;101441.25;;;13.29;100.00
2405;BME280;1213;43.206;27.922;2022-12-07T09:25:43;101450.00;;;13.69;100.00
2405;BME280;1213;43.206;27.922;2022-12-07T09:28:10;101438.78;;;14.04;100.00
2405;BME280;1213;43.206;27.922;2022-12-07T09:30:35;101442.59;;;13.87;100.00
2405;BME280;1213;43.206;27.922;2022-12-07T09:33:01;101441.09;;;13.96;100.00
2405;BME280;1213;43.206;27.922;2022-12-07T09:35:29;101427.75;;;14.23;100.00
2405;BME280;1213;43.206;27.922;2022-12-07T09:37:54;101422.44;;;14.48;100.00
2405;BME280;1213;43.206;27.922;2022-12-07T09:40:22;101410.66;;;15.00;100.00
2405;BME280;1213;43.206;27.922;2022-12-07T09:42:52;101419.31;;;15.02;100.00
2405;BME280;1213;43.206;27.922;2022-12-07T09:45:34;101422.22;;;14.99;100.00
2405;BME280;1213;43.206;27.922;2022-12-07T09:48:02;101422.44;;;14.72;100.00
2405;BME280;1213;43.206;27.922;2022-12-07T09:50:29;101410.13;;;14.84;100.00
2405;BME280;1213;43.206;27.922;2022-12-07T09:53:06;101419.13;;;13.95;100.00
2405;BME280;1213;43.206;27.922;2022-12-07T09:55:35;101421.88;;;13.43;100.00
2405;BME280;1213;43.206;27.922;2022-12-07T09:58:02;101422.03;;;12.87;100.00
2405;BME280;1213;43.206;27.922;2022-12-07T10:00:29;101416.19;;;12.82;100.00
2405;BME280;1213;43.206;27.922;2022-12-07T10:02:59;101421.78;;;12.77;100.00
2405;BME280;1213;43.206;27.922;2022-12-07T10:05:30;101410.00;;;12.56;100.00
2405;BME280;1213;43.206;27.922;2022-12-07T10:07:57;101412.03;;;12.65;100.00
2405;BME280;1213;43.206;27.922;2022-12-07T10:10:32;101410.78;;;12.71;100.00
2405;BME280;1213;43.206;27.922;2022-12-07T10:13:07;101413.88;;;12.77;100.00
2405;BME280;1213;43.206;27.922;2022-12-07T10:18:25;101404.56;;;13.12;100.00
2405;BME280;1213;43.206;27.922;2022-12-07T10:21:21;101407.09;;;13.40;100.00
2405;BME280;1213;43.206;27.922;2022-12-07T10:26:39;101396.94;;;13.59;100.00
2405;BME280;1213;43.206;27.922;2022-12-07T10:34:31;101382.28;;;14.18;100.00
2405;BME280;1213;43.206;27.922;2022-12-07T10:39:46;101376.47;;;14.62;100.00
2405;BME280;1213;43.206;27.922;2022-12-07T10:44:45;101373.38;;;14.31;100.00
2405;BME280;1213;43.206;27.922;2022-12-07T10:55:35;101366.84;;;13.75;100.00
2405;BME280;1213;43.206;27.922;2022-12-07T11:04:02;101355.00;;;14.30;100.00
2405;BME280;1213;43.206;27.922;2022-12-07T11:07:21;101350.13;;;14.60;100.00
2405;BME280;1213;43.206;27.922;2022-12-07T11:12:14;101340.22;;;14.75;100.00
2405;BME280;1213;43.206;27.922;2022-12-07T11:17:35;101339.72;;;14.09;100.00
2405;BME280;1213;43.206;27.922;2022-12-07T11:25:37;101322.44;;;14.29;100.00
2405;BME280;1213;43.206;27.922;2022-12-07T11:31:22;101326.81;;;14.41;100.00
2405;BME280;1213;43.206;27.922;2022-12-07T11:36:37;101320.03;;;14.74;100.00
2405;BME280;1213;43.206;27.922;2022-12-07T11:39:29;101308.63;;;14.85;100.00
2405;BME280;1213;43.206;27.922;2022-12-07T11:52:59;101305.00;;;15.43;100.00
2405;BME280;1213;43.206;27.922;2022-12-07T12:00:37;101295.06;;;14.65;100.00
2405;BME280;1213;43.206;27.922;2022-12-07T12:03:10;101293.06;;;14.69;100.00
2405;BME280;1213;43.206;27.922;2022-12-07T12:05:39;101296.22;;;14.74;100.00
2405;BME280;1213;43.206;27.922;2022-12-07T12:08:13;101291.25;;;14.69;100.00
2405;BME280;1213;43.206;27.922;2022-12-07T12:16:23;101290.88;;;14.15;100.00
2405;BME280;1213;43.206;27.922;2022-12-07T12:21:29;101290.63;;;14.18;100.00
2405;BME280;1213;43.206;27.922;2022-12-07T12:26:26;101278.50;;;14.15;100.00
2405;BME280;1213;43.206;27.922;2022-12-07T12:29:13;101274.50;;;14.10;100.00
2405;BME280;1213;43.206;27.922;2022-12-07T12:31:47;101278.56;;;13.90;100.00
2405;BME280;1213;43.206;27.922;2022-12-07T12:34:39;101277.47;;;14.05;100.00
2405;BME280;1213;43.206;27.922;2022-12-07T12:42:46;101275.34;;;13.74;100.00
2405;BME280;1213;43.206;27.922;2022-12-07T12:45:23;101276.97;;;13.64;100.00
2405;BME280;1213;43.206;27.922;2022-12-07T12:48:00;101276.84;;;13.78;100.00
2405;BME280;1213;43.206;27.922;2022-12-07T12:52:57;101267.84;;;13.68;100.00
2405;BME280;1213;43.206;27.922;2022-12-07T13:00:47;101278.78;;;13.63;100.00
2405;BME280;1213;43.206;27.922;2022-12-07T13:03:29;101282.06;;;13.54;100.00
2405;BME280;1213;43.206;27.922;2022-12-07T13:08:46;101278.47;;;13.42;100.00
2405;BME280;1213;43.206;27.922;2022-12-07T13:11:34;101276.59;;;13.31;100.00
2405;BME280;1213;43.206;27.922;2022-12-07T13:17:10;101269.41;;;13.08;100.00
2405;BME280;1213;43.206;27.922;2022-12-07T13:25:18;101269.16;;;12.98;100.00
2405;BME280;1213;43.206;27.922;2022-12-07T13:27:51;101268.13;;;13.01;100.00
2405;BME280;1213;43.206;27.922;2022-12-07T13:30:20;101265.38;;;13.02;100.00
2405;BME280;1213;43.206;27.922;2022-12-07T13:32:54;101266.34;;;13.01;100.00
2405;BME280;1213;43.206;27.922;2022-12-07T13:35:37;101269.50;;;12.94;100.00
2405;BME280;1213;43.206;27.922;2022-12-07T13:38:13;101268.53;;;12.95;100.00
2405;BME280;1213;43.206;27.922;2022-12-07T13:40:41;101272.13;;;12.81;100.00
2405;BME280;1213;43.206;27.922;2022-12-07T13:43:13;101270.50;;;12.66;100.00
2405;BME280;1213;43.206;27.922;2022-12-07T13:45:41;101268.34;;;12.45;100.00
2405;BME280;1213;43.206;27.922;2022-12-07T13:50:41;101271.59;;;12.36;100.00
2405;BME280;1213;43.206;27.922;2022-12-07T13:53:12;101267.03;;;12.26;100.00
2405;BME280;1213;43.206;27.922;2022-12-07T13:55:44;101272.47;;;12.10;100.00
2405;BME280;1213;43.206;27.922;2022-12-07T13:58:11;101274.75;;;12.02;100.00
2405;BME280;1213;43.206;27.922;2022-12-07T14:00:36;101282.47;;;11.90;100.00
2405;BME280;1213;43.206;27.922;2022-12-07T14:05:37;101283.03;;;11.67;100.00
2405;BME280;1213;43.206;27.922;2022-12-07T14:08:22;101288.22;;;11.54;100.00
2405;BME280;1213;43.206;27.922;2022-12-07T14:13:38;101277.78;;;11.38;100.00
2405;BME280;1213;43.206;27.922;2022-12-07T14:16:29;101281.09;;;11.28;100.00
2405;BME280;1213;43.206;27.922;2022-12-07T14:18:57;101282.50;;;11.19;100.00
2405;BME280;1213;43.206;27.922;2022-12-07T14:21:26;101289.34;;;11.07;100.00
2405;BME280;1213;43.206;27.922;2022-12-07T14:24:14;101285.38;;;11.00;100.00
2405;BME280;1213;43.206;27.922;2022-12-07T14:26:40;101279.38;;;10.98;100.00
2405;BME280;1213;43.206;27.922;2022-12-07T14:31:54;101280.19;;;10.84;100.00
2405;BME280;1213;43.206;27.922;2022-12-07T14:34:21;101283.16;;;10.78;100.00
2405;BME280;1213;43.206;27.922;2022-12-07T14:36:47;101274.72;;;10.73;100.00
2405;BME280;1213;43.206;27.922;2022-12-07T14:39:13;101275.28;;;10.78;100.00
2405;BME280;1213;43.206;27.922;2022-12-07T14:41:38;101272.38;;;10.69;100.00
2405;BME280;1213;43.206;27.922;2022-12-07T14:44:17;101268.69;;;10.71;100.00
2405;BME280;1213;43.206;27.922;2022-12-07T14:46:43;101267.38;;;10.64;100.00
2405;BME280;1213;43.206;27.922;2022-12-07T14:49:09;101264.72;;;10.64;100.00
2405;BME280;1213;43.206;27.922;2022-12-07T14:51:38;101274.31;;;10.65;100.00
2405;BME280;1213;43.206;27.922;2022-12-07T14:54:05;101277.81;;;10.66;100.00
2405;BME280;1213;43.206;27.922;2022-12-07T14:56:32;101275.78;;;10.55;100.00
2405;BME280;1213;43.206;27.922;2022-12-07T14:58:57;101273.34;;;10.52;100.00
2405;BME280;1213;43.206;27.922;2022-12-07T15:01:23;101273.34;;;10.52;100.00
2405;BME280;1213;43.206;27.922;2022-12-07T15:03:48;101283.75;;;10.53;100.00
2405;BME280;1213;43.206;27.922;2022-12-07T15:06:16;101285.34;;;10.56;100.00
2405;BME280;1213;43.206;27.922;2022-12-07T15:08:42;101289.03;;;10.53;100.00
2405;BME280;1213;43.206;27.922;2022-12-07T15:11:13;101287.91;;;10.57;100.00
2405;BME280;1213;43.206;27.922;2022-12-07T15:13:39;101286.00;;;10.45;100.00
2405;BME280;1213;43.206;27.922;2022-12-07T15:16:23;101293.88;;;10.45;100.00
2405;BME280;1213;43.206;27.922;2022-12-07T15:18:48;101297.34;;;10.46;100.00
2405;BME280;1213;43.206;27.922;2022-12-07T15:21:15;101306.31;;;10.42;100.00
2405;BME280;1213;43.206;27.922;2022-12-07T15:23:41;101294.31;;;10.38;100.00
2405;BME280;1213;43.206;27.922;2022-12-07T15:26:07;101298.72;;;10.37;100.00
2405;BME280;1213;43.206;27.922;2022-12-07T15:28:33;101298.22;;;10.31;100.00
2405;BME280;1213;43.206;27.922;2022-12-07T15:30:59;101303.19;;;10.35;100.00
2405;BME280;1213;43.206;27.922;2022-12-07T15:33:24;101304.56;;;10.26;100.00
2405;BME280;1213;43.206;27.922;2022-12-07T15:35:50;101304.56;;;10.26;100.00
2405;BME280;1213;43.206;27.922;2022-12-07T15:38:15;101304.56;;;10.26;100.00
2405;BME280;1213;43.206;27.922;2022-12-07T15:40:41;101309.16;;;10.23;100.00